Terminal Aerodrome Forecast
Issued by NWS

Home | Current Version | Previous Version | Text Only | Print | Product List | Glossary On
Versions: 1 2 3 4 5 6 7 8 9 10 11 12 13 14 15 16 17 18 19 20 21 22 23 24 25 26 27 28 29
000
FTUS41 KCAR 161700 AAA
TAFPQI
TAF AMD
KPQI 161724Z 1617/1718 30017G25KT P6SM VCSH BKN035
     FM162000 30013G23KT P6SM SCT035
     FM170000 29006KT P6SM SKC
     FM170800 00000KT P6SM SKC
     FM171400 00000KT P6SM BKN150
      AMD NOT SKED=

USA.gov is the U.S. government's official web portal to all federal, state and local government web resources and services.